Time;durP1;ratioP1;P1;durP2;ratioP2;P2;SDS_P1;SDS_P2;PMS_P1;PMS_P2;Temp;Humidity;BMP_temperature;BMP_pressure;BME280_temperature;BME280_humidity;BME280_pressure;Samples;Min_cycle;Max_cycle;Signal;HPM_P1;HPM_P2
2022/11/04 00:01:52;;;;;;;1351.33;258.30;;;11.30;99.90;;;;;;5150549;27;20205;-49
2022/11/04 00:04:21;;;;;;;1006.33;212.33;;;11.40;99.90;;;;;;5150366;27;20226;-50
2022/11/04 00:06:52;;;;;;;1276.17;287.80;;;11.30;99.90;;;;;;5133453;27;20229;-50
2022/11/04 00:09:22;;;;;;;1246.53;261.67;;;11.30;99.90;;;;;;5150079;27;20279;-49
2022/11/04 00:14:36;;;;;;;118.63;44.17;;;11.30;99.90;;;;;;5151045;27;20742;-49
2022/11/04 00:17:20;;;;;;;1445.80;302.27;;;11.40;99.90;;;;;;5143781;27;20231;-50
2022/11/04 00:33:24;;;;;;;1149.60;282.53;;;11.40;99.90;;;;;;5150018;27;20268;-50
2022/11/04 00:33:46;;;;;;;1999.90;375.67;;;11.30;99.90;;;;;;5141355;27;20221;-50
2022/11/04 00:36:14;;;;;;;1999.90;548.07;;;11.30;99.90;;;;;;5144179;27;20205;-48
2022/11/04 00:38:44;;;;;;;1999.90;492.40;;;11.30;99.90;;;;;;5143378;27;20304;-50
2022/11/04 00:41:25;;;;;;;1999.90;427.13;;;11.20;99.90;;;;;;5149576;27;20439;-50
2022/11/04 00:43:55;;;;;;;1299.43;321.50;;;11.20;99.90;;;;;;5150512;27;20230;-50
2022/11/04 00:46:23;;;;;;;1272.43;290.73;;;11.30;99.90;;;;;;5143672;27;20293;-50
2022/11/04 00:48:51;;;;;;;1250.57;240.70;;;11.30;99.90;;;;;;5156470;27;20233;-50
2022/11/04 00:51:20;;;;;;;1355.33;268.07;;;11.30;99.90;;;;;;5153142;27;20265;-50
2022/11/04 00:53:51;;;;;;;652.33;142.93;;;11.30;99.90;;;;;;5154705;27;20209;-49
2022/11/04 00:56:19;;;;;;;1254.00;271.43;;;11.30;99.90;;;;;;5154826;27;20202;-49
2022/11/04 00:58:48;;;;;;;1257.63;235.77;;;11.30;99.90;;;;;;5153993;27;20210;-50
2022/11/04 01:01:18;;;;;;;1057.37;228.77;;;11.40;99.90;;;;;;5153635;27;20249;-49
2022/11/04 01:03:48;;;;;;;827.20;190.10;;;11.30;99.90;;;;;;5153348;27;20591;-50
2022/11/04 01:06:17;;;;;;;1999.90;495.50;;;11.40;99.90;;;;;;5147697;27;20203;-50
2022/11/04 01:08:45;;;;;;;1160.20;176.60;;;11.40;99.90;;;;;;5150700;27;20233;-50
2022/11/04 01:11:15;;;;;;;503.50;108.67;;;11.40;99.90;;;;;;5153755;27;20309;-50
2022/11/04 01:13:43;;;;;;;1999.90;429.80;;;11.30;99.90;;;;;;5153695;27;20245;-50
2022/11/04 01:16:12;;;;;;;1934.07;314.33;;;11.30;99.90;;;;;;5148918;27;20237;-49
2022/11/04 01:18:41;;;;;;;1635.27;366.60;;;11.30;99.90;;;;;;5154390;27;20237;-49
2022/11/04 01:21:11;;;;;;;730.30;166.33;;;11.30;99.90;;;;;;5151361;27;20659;-50
2022/11/04 01:23:40;;;;;;;1426.23;306.10;;;11.30;99.90;;;;;;5143061;27;20247;-49
2022/11/04 01:26:10;;;;;;;1053.13;214.47;;;11.30;99.90;;;;;;5153322;27;20237;-50
2022/11/04 01:28:40;;;;;;;784.53;206.23;;;11.40;99.90;;;;;;5151239;27;20325;-49
2022/11/04 01:31:09;;;;;;;488.80;119.33;;;11.30;99.90;;;;;;5152639;27;20260;-49
2022/11/04 01:33:37;;;;;;;1121.53;184.97;;;11.40;99.90;;;;;;5134335;27;20294;-50
2022/11/04 01:36:07;;;;;;;1999.90;582.10;;;11.40;99.90;;;;;;5146323;27;20782;-50
2022/11/04 01:38:35;;;;;;;757.10;147.70;;;11.40;99.90;;;;;;5154285;27;20240;-49
2022/11/04 01:41:05;;;;;;;1999.90;611.40;;;11.40;99.90;;;;;;5153748;27;20228;-50
2022/11/04 01:43:48;;;;;;;1428.27;235.77;;;11.50;99.90;;;;;;5153633;27;20293;-50
2022/11/04 01:46:37;;;;;;;1058.70;227.80;;;11.40;99.90;;;;;;5146687;27;20210;-49
2022/11/04 01:49:18;;;;;;;505.43;150.93;;;11.30;99.90;;;;;;5125501;27;20209;-50
2022/11/04 01:51:48;;;;;;;1110.17;214.57;;;11.30;99.90;;;;;;5132686;27;20218;-47
2022/11/04 01:54:18;;;;;;;1999.90;622.77;;;11.30;99.90;;;;;;5132693;27;20679;-50
2022/11/04 01:56:47;;;;;;;618.10;170.10;;;11.20;99.90;;;;;;5131898;27;20207;-50
2022/11/04 01:59:22;;;;;;;691.67;200.03;;;11.30;99.90;;;;;;5130925;27;20735;-50
2022/11/04 02:01:50;;;;;;;1941.90;362.97;;;11.10;99.90;;;;;;5132639;27;20202;-49
2022/11/04 02:04:28;;;;;;;358.07;105.30;;;11.20;99.90;;;;;;5132403;27;20238;-50
2022/11/04 02:06:59;;;;;;;673.57;225.93;;;11.10;99.90;;;;;;5132069;27;20303;-49
2022/11/04 02:09:28;;;;;;;262.20;69.40;;;11.00;99.90;;;;;;5132149;27;20244;-50
2022/11/04 02:14:45;;;;;;;292.47;100.43;;;11.00;99.90;;;;;;5132982;27;20203;-50
2022/11/04 02:17:30;;;;;;;133.07;22.50;;;10.90;99.90;;;;;;5132331;27;20205;-49
2022/11/04 02:20:19;;;;;;;786.83;313.47;;;11.00;99.90;;;;;;5125084;27;20258;-50
2022/11/04 02:23:26;;;;;;;239.63;84.13;;;10.90;99.90;;;;;;5125347;27;20234;-49
2022/11/04 02:26:19;;;;;;;1960.20;377.93;;;10.90;99.90;;;;;;5105766;27;20672;-49
2022/11/04 02:29:34;;;;;;;1620.97;307.40;;;10.90;99.90;;;;;;5123749;27;20302;-50
2022/11/04 02:32:12;;;;;;;528.67;119.43;;;10.80;99.90;;;;;;5055347;28;20256;-48
2022/11/04 02:34:50;;;;;;;306.10;120.27;;;10.80;99.90;;;;;;5066082;28;20200;-50
2022/11/04 02:37:30;;;;;;;263.57;78.90;;;10.80;99.90;;;;;;5099126;27;20206;-50
2022/11/04 02:40:08;;;;;;;71.60;25.57;;;10.80;99.90;;;;;;5131363;27;20218;-49
2022/11/04 02:42:42;;;;;;;429.20;113.87;;;10.80;99.90;;;;;;5131785;27;20213;-49
2022/11/04 02:45:17;;;;;;;195.50;67.37;;;10.80;99.90;;;;;;5132064;27;20240;-50
2022/11/04 02:47:49;;;;;;;139.67;50.20;;;10.80;99.90;;;;;;5131795;27;20236;-49
2022/11/04 02:50:23;;;;;;;96.73;37.43;;;10.80;99.90;;;;;;5131322;27;20266;-49
2022/11/04 02:52:58;;;;;;;527.23;204.20;;;10.80;99.90;;;;;;5131589;27;20306;-50
2022/11/04 02:55:30;;;;;;;211.20;88.23;;;10.80;99.90;;;;;;5132050;27;20283;-49
2022/11/04 02:58:00;;;;;;;176.27;71.40;;;10.80;99.90;;;;;;5131284;27;20230;-50
2022/11/04 03:00:31;;;;;;;129.67;52.00;;;10.80;99.90;;;;;;5131467;27;20376;-50
2022/11/04 03:03:03;;;;;;;231.10;83.40;;;10.80;99.90;;;;;;5130051;27;20654;-49
2022/11/04 03:05:34;;;;;;;227.17;51.27;;;10.80;99.90;;;;;;5131055;27;20256;-50
2022/11/04 03:08:07;;;;;;;324.03;83.30;;;10.80;99.90;;;;;;5130555;27;20687;-50
2022/11/04 03:10:39;;;;;;;101.77;33.20;;;10.80;99.90;;;;;;5130674;27;20223;-48
2022/11/04 03:13:13;;;;;;;583.80;181.13;;;10.80;99.90;;;;;;5130986;27;20219;-50
2022/11/04 03:15:48;;;;;;;546.10;165.70;;;10.70;99.90;;;;;;5131427;27;20234;-49
2022/11/04 03:18:24;;;;;;;235.77;90.33;;;10.70;99.90;;;;;;5131193;27;20194;-50
2022/11/04 03:20:54;;;;;;;383.80;133.03;;;10.60;99.90;;;;;;5130545;27;20249;-49
2022/11/04 03:23:22;;;;;;;333.10;124.23;;;10.50;99.90;;;;;;5126736;27;20203;-49
2022/11/04 03:25:54;;;;;;;214.40;86.80;;;10.40;99.90;;;;;;5130594;27;20623;-50
2022/11/04 03:28:30;;;;;;;107.80;25.67;;;10.30;99.90;;;;;;5122314;27;20712;-49
2022/11/04 03:31:04;;;;;;;589.77;212.90;;;10.30;99.90;;;;;;5130427;27;20250;-49
2022/11/04 03:33:40;;;;;;;352.07;127.47;;;10.30;99.90;;;;;;5130303;27;20250;-49
2022/11/04 03:36:08;;;;;;;492.93;194.90;;;10.30;99.90;;;;;;5130509;27;20207;-49
2022/11/04 03:38:38;;;;;;;290.13;92.13;;;10.30;99.90;;;;;;5129821;27;20209;-49
2022/11/04 03:41:12;;;;;;;559.30;163.87;;;10.30;99.90;;;;;;5128978;27;20739;-49
2022/11/04 03:43:41;;;;;;;295.90;117.73;;;10.20;99.90;;;;;;5130602;27;20229;-49
2022/11/04 03:46:11;;;;;;;221.17;78.23;;;10.20;99.90;;;;;;5130755;27;20271;-50
2022/11/04 03:48:42;;;;;;;468.57;129.17;;;10.20;99.90;;;;;;5130210;27;20215;-50
2022/11/04 03:51:10;;;;;;;416.80;131.37;;;10.20;99.90;;;;;;5130107;27;20659;-49
2022/11/04 03:53:38;;;;;;;198.90;67.80;;;10.20;99.90;;;;;;5129859;27;20397;-49
2022/11/04 03:56:35;;;;;;;301.83;105.23;;;10.20;99.90;;;;;;5130334;27;20294;-49
2022/11/04 03:59:17;;;;;;;257.80;63.17;;;10.20;99.90;;;;;;5129855;27;20222;-50
2022/11/04 04:01:52;;;;;;;436.83;161.60;;;10.30;99.90;;;;;;5129965;27;20218;-50
2022/11/04 04:04:27;;;;;;;30.00;12.17;;;10.30;99.90;;;;;;5129775;27;20203;-50
2022/11/04 04:07:02;;;;;;;85.43;28.27;;;10.30;99.90;;;;;;5130293;27;20732;-50
2022/11/04 04:09:37;;;;;;;131.23;54.07;;;10.40;99.90;;;;;;5115582;27;20226;-50
2022/11/04 04:12:12;;;;;;;427.60;153.53;;;10.40;99.90;;;;;;5129277;27;20772;-50
2022/11/04 04:14:43;;;;;;;920.57;395.80;;;10.40;99.90;;;;;;5130557;27;20311;-50
2022/11/04 04:17:19;;;;;;;553.40;187.83;;;10.40;99.90;;;;;;5130494;27;20237;-50
2022/11/04 04:19:52;;;;;;;221.87;59.77;;;10.30;99.90;;;;;;5129578;27;20304;-49
2022/11/04 04:22:24;;;;;;;217.13;78.97;;;10.30;99.90;;;;;;5116308;27;20295;-49
2022/11/04 04:27:43;;;;;;;167.83;53.23;;;10.30;99.90;;;;;;5128579;27;20242;-49
2022/11/04 04:30:14;;;;;;;131.47;48.83;;;10.20;99.90;;;;;;5129394;27;20256;-50
2022/11/04 04:32:45;;;;;;;588.33;219.63;;;10.20;99.90;;;;;;5128693;27;20258;-49
2022/11/04 04:46:25;;;;;;;94.13;41.27;;;10.10;99.90;;;;;;5129964;27;20234;-49
2022/11/04 04:48:54;;;;;;;232.50;63.37;;;10.10;99.90;;;;;;5129528;27;20261;-49
2022/11/04 04:51:23;;;;;;;450.43;123.80;;;10.00;99.90;;;;;;5129021;27;20310;-50
2022/11/04 04:53:51;;;;;;;256.77;95.03;;;9.90;99.90;;;;;;5129115;27;20223;-49
2022/11/04 04:56:19;;;;;;;531.67;165.03;;;9.90;99.90;;;;;;5129080;27;20722;-49
2022/11/04 04:58:47;;;;;;;250.63;85.30;;;9.80;99.90;;;;;;5129278;27;20626;-49
2022/11/04 05:01:15;;;;;;;300.00;100.60;;;9.90;99.90;;;;;;5128570;27;20711;-50
2022/11/04 05:03:44;;;;;;;153.53;47.97;;;9.90;99.90;;;;;;5129132;27;20209;-49
2022/11/04 05:06:13;;;;;;;664.27;229.33;;;9.90;99.90;;;;;;5128818;27;20205;-50
2022/11/04 05:08:41;;;;;;;415.80;150.47;;;9.90;99.90;;;;;;5129744;27;20243;-49
2022/11/04 05:11:10;;;;;;;11.83;10.67;;;9.90;99.90;;;;;;5129452;27;20263;-49
2022/11/04 05:13:38;;;;;;;332.57;107.40;;;9.90;99.90;;;;;;5128361;27;20744;-50
2022/11/04 05:16:08;;;;;;;129.07;55.63;;;9.90;99.90;;;;;;5129822;27;20298;-50
2022/11/04 05:18:37;;;;;;;267.50;79.07;;;9.80;99.90;;;;;;5128814;27;20428;-49
2022/11/04 05:21:06;;;;;;;77.43;23.30;;;9.90;99.90;;;;;;5127803;27;20315;-50
2022/11/04 05:23:36;;;;;;;589.67;149.20;;;9.90;99.90;;;;;;5126156;27;20233;-50
2022/11/04 05:26:04;;;;;;;234.37;84.53;;;9.90;99.90;;;;;;5129007;28;20706;-49
2022/11/04 05:28:33;;;;;;;296.10;92.60;;;9.80;99.90;;;;;;5120718;27;20306;-49
2022/11/04 05:31:03;;;;;;;111.17;43.53;;;9.70;99.90;;;;;;5129245;27;20249;-49
2022/11/04 05:33:32;;;;;;;205.33;62.30;;;9.70;99.90;;;;;;5131153;27;20309;-49
2022/11/04 05:36:07;;;;;;;288.90;103.40;;;9.70;99.90;;;;;;5131926;27;20286;-50
2022/11/04 05:38:36;;;;;;;298.47;115.47;;;9.80;99.90;;;;;;5133613;27;20240;-50
2022/11/04 05:41:04;;;;;;;18.50;10.07;;;9.70;99.90;;;;;;5132414;27;20334;-49
2022/11/04 05:43:33;;;;;;;370.20;113.40;;;9.60;99.90;;;;;;5132722;27;20243;-50
2022/11/04 05:46:01;;;;;;;61.10;19.07;;;9.60;99.90;;;;;;5118489;27;20203;-50
2022/11/04 05:48:30;;;;;;;203.83;69.57;;;9.50;99.90;;;;;;5132801;27;20237;-49
2022/11/04 05:51:03;;;;;;;81.40;32.70;;;9.50;99.90;;;;;;5133291;27;20226;-49
2022/11/04 05:53:31;;;;;;;93.67;44.13;;;9.40;99.90;;;;;;5132273;27;20280;-50
2022/11/04 05:56:01;;;;;;;118.63;34.20;;;9.40;99.90;;;;;;5132421;27;20286;-49
2022/11/04 05:58:29;;;;;;;272.60;92.63;;;9.40;99.90;;;;;;5133832;27;20253;-50
2022/11/04 06:01:22;;;;;;;144.53;61.00;;;9.40;99.90;;;;;;5135108;27;20254;-50
2022/11/04 06:03:50;;;;;;;14.97;13.73;;;9.40;99.90;;;;;;5122259;27;20614;-50
2022/11/04 06:06:18;;;;;;;25.20;22.90;;;9.40;99.90;;;;;;5132851;27;20291;-49
2022/11/04 06:08:47;;;;;;;106.50;40.80;;;9.40;99.90;;;;;;5130803;27;20663;-50
2022/11/04 06:11:16;;;;;;;269.70;73.17;;;9.40;99.90;;;;;;5133085;27;20222;-50
2022/11/04 06:13:44;;;;;;;462.00;156.87;;;9.30;99.90;;;;;;5132206;27;20703;-49
2022/11/04 06:16:12;;;;;;;511.40;137.33;;;9.30;99.90;;;;;;5132630;27;20203;-50
2022/11/04 06:18:41;;;;;;;189.97;88.87;;;9.30;99.90;;;;;;5132359;27;20199;-51
2022/11/04 06:21:20;;;;;;;419.37;138.63;;;9.20;99.90;;;;;;5129831;27;20737;-50
2022/11/04 06:23:49;;;;;;;125.27;57.67;;;9.20;99.90;;;;;;5130967;27;20203;-50
2022/11/04 06:26:18;;;;;;;324.07;137.27;;;9.10;99.90;;;;;;5132664;27;20234;-50
2022/11/04 06:28:52;;;;;;;361.67;136.17;;;9.20;99.90;;;;;;5129272;27;20257;-50
2022/11/04 06:31:21;;;;;;;195.17;68.53;;;9.20;99.90;;;;;;5132621;27;20261;-49
2022/11/04 06:33:49;;;;;;;249.70;88.20;;;9.20;99.90;;;;;;5133015;27;20268;-50
2022/11/04 06:36:17;;;;;;;239.97;98.83;;;9.10;99.90;;;;;;5132619;27;20203;-49
2022/11/04 06:38:45;;;;;;;105.23;31.33;;;9.10;99.90;;;;;;5131839;27;20241;-49
2022/11/04 06:41:15;;;;;;;19.23;16.00;;;9.10;99.90;;;;;;5132249;27;20250;-51
2022/11/04 06:43:45;;;;;;;125.07;45.43;;;9.20;99.90;;;;;;5130454;27;20229;-50
2022/11/04 06:46:26;;;;;;;258.73;83.63;;;9.20;99.90;;;;;;5132158;27;20226;-50
2022/11/04 06:48:56;;;;;;;268.17;77.23;;;9.20;99.90;;;;;;5131012;27;20262;-50
2022/11/04 06:51:24;;;;;;;145.77;49.87;;;9.10;99.90;;;;;;5132290;27;20307;-50
2022/11/04 06:53:53;;;;;;;142.70;75.87;;;9.10;99.90;;;;;;5130819;27;20223;-50
2022/11/04 06:56:21;;;;;;;140.47;39.97;;;9.10;99.90;;;;;;5131416;27;20290;-50
2022/11/04 06:58:51;;;;;;;289.07;113.37;;;9.10;99.90;;;;;;5132232;27;20243;-50
2022/11/04 07:01:20;;;;;;;175.70;47.07;;;9.10;99.90;;;;;;5124830;27;20222;-49
2022/11/04 07:03:50;;;;;;;81.20;39.23;;;9.00;99.90;;;;;;5128481;27;20698;-50
2022/11/04 07:06:19;;;;;;;160.67;45.23;;;9.10;99.90;;;;;;5122194;27;20520;-50
2022/11/04 07:08:48;;;;;;;307.03;89.40;;;9.10;99.90;;;;;;5129461;27;20215;-49
2022/11/04 07:11:17;;;;;;;410.60;117.20;;;9.00;99.90;;;;;;5142395;27;20310;-50
2022/11/04 07:13:45;;;;;;;193.17;53.00;;;9.00;99.90;;;;;;5131837;27;20219;-49
2022/11/04 07:16:16;;;;;;;141.00;34.67;;;9.00;99.90;;;;;;5131143;27;20242;-50
2022/11/04 07:18:45;;;;;;;299.37;97.23;;;9.00;99.90;;;;;;5130790;27;20234;-49
2022/11/04 07:21:13;;;;;;;271.23;79.73;;;9.00;99.90;;;;;;5131543;27;20255;-50
2022/11/04 07:23:41;;;;;;;288.07;88.43;;;9.00;99.90;;;;;;5130311;27;20677;-49
2022/11/04 07:26:12;;;;;;;69.87;32.40;;;9.00;99.90;;;;;;5130076;27;20247;-49
2022/11/04 07:28:40;;;;;;;241.50;100.03;;;9.00;99.90;;;;;;5129841;27;20746;-50
2022/11/04 07:31:10;;;;;;;126.30;51.97;;;9.00;99.90;;;;;;5130692;27;20738;-49
2022/11/04 07:33:40;;;;;;;451.20;193.87;;;9.00;99.90;;;;;;5129650;27;20228;-50
2022/11/04 07:36:11;;;;;;;481.10;166.83;;;9.00;99.90;;;;;;5129698;27;20250;-50
2022/11/04 07:38:39;;;;;;;158.27;49.13;;;9.00;99.90;;;;;;5130706;27;20749;-49
2022/11/04 07:41:07;;;;;;;134.37;48.03;;;8.90;99.90;;;;;;5130378;27;20250;-49
2022/11/04 07:43:35;;;;;;;26.00;18.53;;;9.00;99.90;;;;;;5130666;27;20199;-49
2022/11/04 07:46:05;;;;;;;84.70;36.23;;;8.90;99.90;;;;;;5130646;27;20231;-49
2022/11/04 07:48:33;;;;;;;89.50;41.07;;;9.00;99.90;;;;;;5130194;27;20234;-49
2022/11/04 07:51:05;;;;;;;135.67;41.83;;;9.00;99.90;;;;;;5129908;27;20246;-50
2022/11/04 07:53:33;;;;;;;220.67;75.47;;;9.00;99.90;;;;;;5130026;27;20645;-50
2022/11/04 07:56:04;;;;;;;280.93;100.93;;;9.00;99.90;;;;;;5129145;27;20285;-50
2022/11/04 07:58:32;;;;;;;229.80;68.73;;;9.10;99.90;;;;;;5130566;27;20242;-50
2022/11/04 08:01:00;;;;;;;386.10;159.07;;;9.00;99.90;;;;;;5129884;27;20722;-50
2022/11/04 08:03:28;;;;;;;286.43;87.80;;;9.10;99.90;;;;;;5129568;27;20246;-49
2022/11/04 08:05:57;;;;;;;98.37;47.00;;;9.10;99.90;;;;;;5130326;27;20206;-49
2022/11/04 08:08:27;;;;;;;249.83;114.90;;;9.20;99.90;;;;;;5130033;27;20625;-49
2022/11/04 08:10:59;;;;;;;100.43;31.60;;;9.30;99.90;;;;;;5127056;27;20227;-50
2022/11/04 08:13:28;;;;;;;336.70;105.37;;;9.40;99.90;;;;;;5116996;27;20553;-49
2022/11/04 08:15:56;;;;;;;562.23;237.17;;;9.40;99.90;;;;;;5138156;27;20312;-49
2022/11/04 08:18:24;;;;;;;26.33;13.60;;;9.60;99.90;;;;;;5145605;27;20245;-48
2022/11/04 08:20:53;;;;;;;319.77;123.50;;;9.60;99.90;;;;;;5129941;27;20608;-48
2022/11/04 08:23:21;;;;;;;281.17;75.43;;;9.60;99.90;;;;;;5129348;27;20558;-50
2022/11/04 08:25:50;;;;;;;487.17;132.03;;;9.60;99.90;;;;;;5129678;27;20207;-50
2022/11/04 08:28:18;;;;;;;490.73;186.10;;;9.60;99.90;;;;;;5129438;27;20358;-50
2022/11/04 08:30:54;;;;;;;195.77;67.23;;;9.50;99.90;;;;;;5129442;27;20218;-49
2022/11/04 08:33:24;;;;;;;695.97;317.37;;;9.40;99.90;;;;;;5128951;27;20293;-50
2022/11/04 08:35:52;;;;;;;397.00;128.67;;;9.40;99.90;;;;;;5126930;27;20280;-50
2022/11/04 08:38:20;;;;;;;273.43;85.47;;;9.30;99.90;;;;;;5129783;27;20211;-50
2022/11/04 08:40:50;;;;;;;628.67;215.73;;;9.30;99.90;;;;;;5129669;27;20322;-50
2022/11/04 08:43:25;;;;;;;229.13;93.53;;;9.30;99.90;;;;;;5128981;27;20279;-49
2022/11/04 08:45:54;;;;;;;211.10;78.63;;;9.30;99.90;;;;;;5129489;27;20228;-50
2022/11/04 08:48:22;;;;;;;453.30;155.17;;;9.30;99.90;;;;;;5128808;27;20231;-50
2022/11/04 08:50:52;;;;;;;205.07;78.77;;;9.30;99.90;;;;;;5129466;27;20251;-50
2022/11/04 08:53:20;;;;;;;214.23;90.10;;;9.40;99.90;;;;;;5129013;28;20286;-49
2022/11/04 08:55:50;;;;;;;333.97;64.67;;;9.60;99.90;;;;;;5129493;28;20255;-49
2022/11/04 08:58:19;;;;;;;287.97;98.67;;;9.60;99.90;;;;;;5125691;27;20203;-50
2022/11/04 09:00:48;;;;;;;23.80;14.93;;;9.60;99.90;;;;;;5121033;28;20307;-48
2022/11/04 09:03:16;;;;;;;365.20;140.43;;;9.60;99.90;;;;;;5122996;27;20313;-50
2022/11/04 09:05:46;;;;;;;893.07;333.00;;;9.60;99.90;;;;;;5129258;27;20233;-49
2022/11/04 09:08:15;;;;;;;441.77;147.93;;;9.60;99.90;;;;;;5130757;27;20726;-50
2022/11/04 09:10:44;;;;;;;471.77;171.97;;;9.70;99.90;;;;;;5133213;27;20226;-49
2022/11/04 09:13:15;;;;;;;539.93;123.77;;;9.70;99.90;;;;;;5132964;27;20299;-50
2022/11/04 09:15:43;;;;;;;238.60;112.60;;;9.80;99.90;;;;;;5132508;27;20260;-49
2022/11/04 09:18:12;;;;;;;507.10;157.37;;;9.90;99.90;;;;;;5133044;27;20217;-49
2022/11/04 09:20:40;;;;;;;498.93;181.07;;;10.00;99.90;;;;;;5127773;27;20277;-51
2022/11/04 09:23:09;;;;;;;499.43;156.30;;;10.00;99.90;;;;;;5128142;27;20298;-50
2022/11/04 09:25:38;;;;;;;317.83;92.13;;;10.00;99.90;;;;;;5133214;27;20686;-50
2022/11/04 09:28:06;;;;;;;351.87;107.97;;;10.10;99.90;;;;;;5134447;27;20535;-49
2022/11/04 09:30:37;;;;;;;49.10;20.60;;;10.10;99.90;;;;;;5132949;27;20313;-49
2022/11/04 09:33:05;;;;;;;615.73;189.50;;;10.20;99.90;;;;;;5131916;27;20238;-50
2022/11/04 09:35:33;;;;;;;392.90;98.47;;;10.30;99.90;;;;;;5132073;27;20215;-49
2022/11/04 09:38:01;;;;;;;206.20;66.70;;;10.30;99.90;;;;;;5133096;27;20236;-50
2022/11/04 09:40:30;;;;;;;1079.17;449.00;;;10.40;99.90;;;;;;5129958;27;20250;-50
2022/11/04 09:43:14;;;;;;;525.57;168.73;;;10.30;99.90;;;;;;5132555;27;20317;-49
2022/11/04 09:45:45;;;;;;;588.63;161.93;;;10.30;99.90;;;;;;5132420;27;20239;-50
2022/11/04 09:48:20;;;;;;;227.87;54.20;;;10.30;99.90;;;;;;5132509;27;20293;-50
2022/11/04 09:50:52;;;;;;;1308.77;337.90;;;10.40;99.90;;;;;;5131340;27;20279;-51
2022/11/04 09:53:26;;;;;;;805.80;172.00;;;10.50;99.90;;;;;;5132882;27;20294;-49
2022/11/04 09:55:57;;;;;;;485.43;188.70;;;10.50;99.90;;;;;;5131126;27;21038;-49
2022/11/04 09:58:26;;;;;;;929.90;343.10;;;10.50;99.90;;;;;;5118474;27;20712;-49
2022/11/04 10:01:03;;;;;;;502.33;164.70;;;10.50;99.90;;;;;;5132615;27;20342;-50
2022/11/04 10:03:48;;;;;;;778.53;275.10;;;10.60;99.90;;;;;;5131195;27;20241;-49
2022/11/04 10:06:32;;;;;;;1352.70;456.70;;;10.60;99.90;;;;;;5122610;27;20244;-49
2022/11/04 10:09:12;;;;;;;929.83;345.57;;;10.60;99.90;;;;;;5120628;27;20207;-49
2022/11/04 10:11:49;;;;;;;471.23;150.57;;;10.70;99.90;;;;;;5129861;27;20820;-49
2022/11/04 10:14:39;;;;;;;593.33;138.57;;;10.80;99.90;;;;;;5132083;27;20664;-49
2022/11/04 10:17:22;;;;;;;705.50;201.57;;;10.90;99.90;;;;;;5132748;27;20210;-48
2022/11/04 10:20:03;;;;;;;677.00;203.87;;;11.00;99.90;;;;;;5131207;27;20257;-49
2022/11/04 10:22:34;;;;;;;722.37;201.87;;;11.10;99.90;;;;;;5132528;27;20253;-49
2022/11/04 10:25:10;;;;;;;1255.97;359.83;;;11.20;99.90;;;;;;5131750;27;20294;-49
2022/11/04 10:27:44;;;;;;;1442.70;336.17;;;11.30;99.90;;;;;;5129386;27;20238;-49
2022/11/04 10:30:16;;;;;;;915.30;313.47;;;11.30;99.90;;;;;;5127892;27;20259;-49
2022/11/04 10:32:57;;;;;;;822.03;238.50;;;11.30;99.90;;;;;;5131038;27;20282;-50
2022/11/04 10:35:32;;;;;;;1509.13;512.83;;;11.30;99.90;;;;;;5131217;27;20261;-49
2022/11/04 10:38:15;;;;;;;954.73;342.80;;;11.20;99.90;;;;;;5131521;27;20285;-49
2022/11/04 10:40:47;;;;;;;898.93;347.93;;;11.30;99.90;;;;;;5131376;27;20730;-49
2022/11/04 10:43:20;;;;;;;1309.37;248.60;;;11.30;99.90;;;;;;5130843;27;20287;-49
2022/11/04 10:46:00;;;;;;;794.07;226.20;;;11.30;99.90;;;;;;5131734;27;20195;-50
2022/11/04 10:48:37;;;;;;;1387.03;444.77;;;11.30;99.90;;;;;;5131137;27;20210;-49
2022/11/04 10:51:06;;;;;;;1420.13;552.27;;;11.30;99.90;;;;;;5131953;27;20257;-49
2022/11/04 10:53:35;;;;;;;798.07;241.37;;;11.20;99.90;;;;;;5131274;27;20314;-49
2022/11/04 10:56:08;;;;;;;1506.03;538.57;;;11.20;99.90;;;;;;5130677;27;20246;-49
2022/11/04 10:58:43;;;;;;;1564.33;360.83;;;11.20;99.90;;;;;;5131519;27;20285;-49
2022/11/04 11:01:26;;;;;;;920.53;319.53;;;11.20;99.90;;;;;;5130526;27;20254;-50
2022/11/04 11:03:56;;;;;;;561.63;192.23;;;11.20;99.90;;;;;;5130253;27;20210;-49
2022/11/04 11:06:29;;;;;;;1001.37;232.00;;;11.40;99.90;;;;;;5130662;27;20209;-50
2022/11/04 11:08:59;;;;;;;1185.73;401.20;;;11.50;99.90;;;;;;5131836;27;20239;-50
2022/11/04 11:11:44;;;;;;;1155.30;234.47;;;11.50;99.90;;;;;;5130735;27;20681;-49
2022/11/04 11:14:30;;;;;;;1047.77;394.77;;;11.40;99.90;;;;;;5121210;27;20747;-50
2022/11/04 11:17:18;;;;;;;896.37;311.20;;;11.40;99.90;;;;;;5131010;27;20206;-50
2022/11/04 11:19:50;;;;;;;1007.03;316.40;;;11.30;99.90;;;;;;5131210;27;20248;-50
2022/11/04 11:22:36;;;;;;;392.93;169.73;;;11.30;99.90;;;;;;5127048;27;20207;-49
2022/11/04 11:25:20;;;;;;;563.27;153.23;;;11.40;99.90;;;;;;5131087;27;20249;-48
2022/11/04 11:27:49;;;;;;;976.00;306.03;;;11.50;99.90;;;;;;5126216;27;20294;-49
2022/11/04 11:30:23;;;;;;;706.50;246.93;;;11.60;99.90;;;;;;5127012;27;20227;-49
2022/11/04 11:32:55;;;;;;;868.63;284.60;;;11.60;99.90;;;;;;5138156;27;20213;-50
2022/11/04 11:35:29;;;;;;;1322.20;497.77;;;11.60;99.90;;;;;;5132523;27;20239;-49
2022/11/04 11:37:58;;;;;;;1221.87;503.00;;;11.70;99.90;;;;;;5130173;27;20245;-49
2022/11/04 11:40:32;;;;;;;1053.90;351.20;;;11.80;99.90;;;;;;5130502;27;20227;-50
2022/11/04 11:43:02;;;;;;;511.20;163.07;;;11.80;99.90;;;;;;5129738;27;20206;-49
2022/11/04 11:45:31;;;;;;;642.33;198.20;;;12.00;99.90;;;;;;5130058;27;20206;-49
2022/11/04 11:47:59;;;;;;;774.23;266.90;;;12.00;99.90;;;;;;5130433;27;20306;-50
2022/11/04 11:50:33;;;;;;;1079.20;343.00;;;12.00;99.90;;;;;;5130019;27;20783;-50
2022/11/04 11:53:14;;;;;;;738.37;220.07;;;12.10;99.90;;;;;;5129102;27;20203;-48
2022/11/04 11:55:48;;;;;;;1371.43;480.37;;;12.00;99.90;;;;;;5128731;27;20242;-49
2022/11/04 11:58:26;;;;;;;898.97;258.77;;;11.90;99.90;;;;;;5130222;27;20286;-49
2022/11/04 12:01:21;;;;;;;486.30;152.97;;;11.90;99.90;;;;;;5124894;27;20233;-50
2022/11/04 12:03:53;;;;;;;1119.37;388.97;;;11.80;99.90;;;;;;5129828;27;20202;-49
2022/11/04 12:06:48;;;;;;;660.60;265.13;;;11.70;99.90;;;;;;5129080;27;20656;-49
2022/11/04 12:09:41;;;;;;;349.50;120.23;;;11.70;99.90;;;;;;5125399;27;20230;-50
2022/11/04 12:12:31;;;;;;;519.47;188.73;;;11.70;99.90;;;;;;5127554;27;20198;-50
2022/11/04 12:15:21;;;;;;;887.33;358.83;;;11.70;99.90;;;;;;5128273;27;20275;-50
2022/11/04 12:18:02;;;;;;;463.30;171.47;;;11.60;99.90;;;;;;5128496;27;20258;-50
2022/11/04 12:20:41;;;;;;;683.03;266.77;;;11.50;99.90;;;;;;5128071;27;20726;-50
2022/11/04 12:23:20;;;;;;;602.07;229.57;;;11.50;99.90;;;;;;5123489;27;20249;-49
2022/11/04 12:26:06;;;;;;;1034.00;345.73;;;11.50;99.90;;;;;;5116628;27;20245;-50
2022/11/04 12:28:47;;;;;;;423.27;142.67;;;11.40;99.90;;;;;;5129131;27;20237;-49
2022/11/04 12:31:23;;;;;;;476.70;217.80;;;11.40;99.90;;;;;;5129148;27;20254;-50
2022/11/04 12:34:03;;;;;;;1055.77;418.90;;;11.50;99.90;;;;;;5128762;27;20281;-49
2022/11/04 12:36:43;;;;;;;953.37;397.40;;;11.50;99.90;;;;;;5128530;27;20795;-49
2022/11/04 12:39:27;;;;;;;773.63;445.37;;;11.60;99.90;;;;;;5129059;27;20842;-49
2022/11/04 12:42:06;;;;;;;644.83;213.80;;;11.60;99.90;;;;;;5127436;27;20230;-50
2022/11/04 12:44:56;;;;;;;556.13;202.13;;;11.70;99.90;;;;;;5129521;27;20211;-50
2022/11/04 12:47:34;;;;;;;920.67;378.27;;;11.80;99.90;;;;;;5129322;27;20237;-50
2022/11/04 12:50:34;;;;;;;426.87;164.93;;;11.90;99.90;;;;;;5129741;28;20254;-50
2022/11/04 12:53:25;;;;;;;1080.40;380.90;;;12.00;99.90;;;;;;5128813;28;20675;-50
2022/11/04 12:56:03;;;;;;;1435.87;613.47;;;12.10;99.90;;;;;;5129483;27;20295;-50
2022/11/04 12:58:44;;;;;;;1303.80;500.27;;;12.20;99.90;;;;;;5130086;27;20195;-50
2022/11/04 13:01:18;;;;;;;1499.13;519.73;;;12.20;99.90;;;;;;5129211;27;20230;-50
2022/11/04 13:03:52;;;;;;;1180.50;417.40;;;12.30;99.90;;;;;;5128924;27;20202;-50
2022/11/04 13:06:26;;;;;;;1145.70;360.13;;;12.30;99.90;;;;;;5130047;27;20289;-50
2022/11/04 13:08:57;;;;;;;1214.20;525.60;;;12.30;99.90;;;;;;5129763;27;20203;-49
2022/11/04 13:11:31;;;;;;;1813.17;390.37;;;12.30;99.90;;;;;;5129150;27;20722;-49
2022/11/04 13:14:06;;;;;;;519.80;136.43;;;12.40;99.90;;;;;;5129105;27;20207;-50